Stations météo

Publicité
Vina Del Mar, Chili (85561): Température de l'air & dewpoint: 12.12.2018 20:00:00 - 18.12.2018 20:00:00 (CLT)Vina Del Mar, Chili (85561): Vitesse du vent: 12.12.2018 20:00:00 - 18.12.2018 20:00:00 (CLT)Vina Del Mar, Chili (85561): Direction du vent: 12.12.2018 20:00:00 - 18.12.2018 20:00:00 (CLT)Vina Del Mar, Chili (85561): visibility: 12.12.2018 20:00:00 - 18.12.2018 20:00:00 (CLT)
Date & Time tt [°C] td [°C] ff [km/h] ff [knt] dd vv [km]
18.12.2018 20:00:00 - - - - - -
18.12.2018 19:00:00 17,0 14,0 18 10 WNW 10
18.12.2018 18:00:00 18,0 14,0 21 11 W 10
18.12.2018 17:00:00 18,0 14,0 24 13 WNW 10
18.12.2018 16:00:00 18,0 14,0 26 14 WNW 10
18.12.2018 15:00:00 19,0 14,0 24 13 WNW 10
18.12.2018 14:00:00 19,0 14,0 22 12 NNW 10
18.12.2018 13:00:00 19,0 14,0 18 10 WNW 7
18.12.2018 12:00:00 18,0 14,0 22 12 WNW 7
18.12.2018 11:00:00 17,0 14,0 5 3 WNW 7
18.12.2018 10:00:00 17,0 13,0 13 7 NNW 7
18.12.2018 09:00:00 15,0 13,0 4 2 NNE 5
18.12.2018 08:00:00 14,0 13,0 9 5 NNW 5
18.12.2018 07:00:00 14,0 13,0 8 4 SSW 3,0
18.12.2018 06:00:00 13,0 13,0 0 0 N 5
18.12.2018 05:00:00 13,0 13,0 0 0 N 5
18.12.2018 04:00:00 13,0 11,0 0 0 N 1,0
18.12.2018 03:00:00 12,0 11,0 0 0 N 4,0
18.12.2018 02:00:00 14,0 13,0 9 5 SW 10
18.12.2018 01:00:00 14,0 13,0 0 0 N 10
18.12.2018 00:00:00 14,0 13,0 0 0 N 10
17.12.2018 23:00:00 15,0 13,0 0 0 N 6
17.12.2018 22:00:00 15,0 13,0 5 3 WNW 6
17.12.2018 21:00:00 15,0 13,0 13 7 W 6
17.12.2018 20:00:00 16,0 14,0 15 8 WNW 6
17.12.2018 19:00:00 17,0 14,0 16 9 WNW 10
17.12.2018 18:00:00 18,0 14,0 15 8 WNW 10
17.12.2018 17:00:00 19,0 14,0 24 13 WNW 10
17.12.2018 16:00:00 19,0 15,0 22 12 WNW 10
17.12.2018 15:00:00 18,0 15,0 22 12 WNW 10
17.12.2018 14:00:00 17,0 14,0 24 13 WNW 10
17.12.2018 13:00:00 18,0 13,0 26 14 NW 10
17.12.2018 12:00:00 17,0 14,0 21 11 WNW 10
17.12.2018 11:00:00 16,0 14,0 15 8 WNW 10
17.12.2018 10:00:00 15,0 13,0 13 7 NNW 10
17.12.2018 09:00:00 14,0 12,0 5 3 NNW 10
17.12.2018 08:00:00 13,0 12,0 8 4 NNW 9
17.12.2018 07:00:00 13,0 12,0 8 4 WNW 8
17.12.2018 06:00:00 13,0 12,0 0 0 N 10
17.12.2018 05:00:00 13,0 12,0 0 0 N 10
17.12.2018 04:00:00 12,0 11,0 0 0 N 10
17.12.2018 03:00:00 - - - - - -
17.12.2018 02:00:00 12,0 11,0 0 0 N 10
17.12.2018 01:00:00 13,0 11,0 5 3 SSW 10
17.12.2018 00:00:00 15,0 13,0 5 3 SSW 10
16.12.2018 23:00:00 15,0 13,0 11 6 WNW 10
16.12.2018 22:00:00 16,0 13,0 16 9 WNW 10
16.12.2018 21:00:00 18,0 13,0 15 8 NW 10
16.12.2018 20:00:00 19,0 12,0 24 13 NNW 10
16.12.2018 19:00:00 20,0 13,0 26 14 NW 10
16.12.2018 18:00:00 21,0 14,0 24 13 NNW 10
16.12.2018 17:00:00 20,0 14,0 28 15 NNW 10
16.12.2018 16:00:00 21,0 14,0 22 12 NNW 10
16.12.2018 15:00:00 21,0 12,0 26 14 NW 10
16.12.2018 14:00:00 20,0 12,0 29 16 NW 10
16.12.2018 13:00:00 21,0 13,0 24 13 NNW 10
16.12.2018 12:00:00 18,0 13,0 21 11 WNW 10
16.12.2018 11:00:00 18,0 13,0 18 10 NW 10
16.12.2018 10:00:00 17,0 12,0 9 5 NW 10
16.12.2018 09:00:00 15,0 12,0 9 5 SSW 10
16.12.2018 08:00:00 12,0 10,0 0 0 N 10
16.12.2018 07:00:00 9,0 8,0 8 4 SSE 10
16.12.2018 06:00:00 10,0 9,0 0 0 N 10
16.12.2018 05:00:00 10,0 8,0 9 5 SSE 10
16.12.2018 04:00:00 10,0 8,0 8 4 ESE 10
16.12.2018 03:00:00 11,0 9,0 0 0 N 10
16.12.2018 02:00:00 13,0 11,0 0 0 N 10
16.12.2018 01:00:00 14,0 11,0 8 4 SSW 10
16.12.2018 00:00:00 14,0 11,0 8 4 SSW 10
15.12.2018 23:00:00 15,0 11,0 9 5 S 10
15.12.2018 22:00:00 16,0 11,0 5 3 S 10
15.12.2018 21:00:00 18,0 11,0 8 4 N 10
15.12.2018 20:00:00 20,0 11,0 16 9 NNW 10
15.12.2018 19:00:00 22,0 10,0 26 14 NNW 10
15.12.2018 18:00:00 24,0 11,0 22 12 NNW 10
15.12.2018 17:00:00 25,0 11,0 21 11 NNW 10
15.12.2018 16:00:00 26,0 12,0 16 9 W 10
15.12.2018 15:00:00 25,0 12,0 16 9 W 10
15.12.2018 14:00:00 20,0 14,0 24 13 NNW 10
15.12.2018 13:00:00 19,0 13,0 24 13 NW 10
15.12.2018 12:00:00 19,0 12,0 22 12 NW 10
15.12.2018 11:00:00 18,0 12,0 22 12 NW 10
15.12.2018 10:00:00 17,0 12,0 15 8 NNW 10
15.12.2018 09:00:00 15,0 11,0 5 3 N 10
15.12.2018 08:00:00 11,0 9,0 0 0 N 10
15.12.2018 07:00:00 9,0 7,0 8 4 S 10
15.12.2018 06:00:00 10,0 9,0 8 4 S 10
15.12.2018 05:00:00 12,0 9,0 5 3 ESE 10
15.12.2018 04:00:00 14,0 9,0 11 6 S 10
15.12.2018 03:00:00 - - - - - -
15.12.2018 02:00:00 15,0 10,0 8 4 S 10
15.12.2018 01:00:00 15,0 10,0 4 2 S 10
15.12.2018 00:00:00 15,0 10,0 8 4 S 10
14.12.2018 23:00:00 16,0 10,0 9 5 S 10
14.12.2018 22:00:00 18,0 11,0 4 2 S 10
14.12.2018 21:00:00 18,0 11,0 13 7 SSW 10
14.12.2018 20:00:00 21,0 11,0 9 5 SSE 10
14.12.2018 19:00:00 24,0 13,0 16 9 SSW 10
14.12.2018 18:00:00 25,0 13,0 22 12 WSW 10
14.12.2018 17:00:00 25,0 13,0 21 11 SSW 10
14.12.2018 16:00:00 24,0 13,0 31 17 WSW 10
14.12.2018 15:00:00 24,0 14,0 37 20 WSW 10
14.12.2018 14:00:00 24,0 15,0 37 20 SSW 10
14.12.2018 13:00:00 24,0 14,0 26 14 WSW 10
14.12.2018 12:00:00 25,0 13,0 9 5 SSE 10
14.12.2018 11:00:00 23,0 12,0 13 7 SSE 10
14.12.2018 10:00:00 21,0 12,0 18 10 S 10
14.12.2018 09:00:00 17,0 11,0 9 5 SSE 10
14.12.2018 08:00:00 14,0 10,0 0 0 N 10
14.12.2018 07:00:00 11,0 8,0 0 0 N 10
14.12.2018 06:00:00 14,0 9,0 5 3 ENE 10
14.12.2018 05:00:00 14,0 9,0 9 5 ENE 10
14.12.2018 04:00:00 14,0 9,0 8 4 N 10
14.12.2018 03:00:00 14,0 9,0 5 3 ENE 10
14.12.2018 02:00:00 14,0 9,0 5 3 SE 10
14.12.2018 01:00:00 14,0 11,0 15 8 SSE 10
14.12.2018 00:00:00 15,0 10,0 15 8 S 10
13.12.2018 23:00:00 15,0 11,0 21 11 S 10
13.12.2018 22:00:00 16,0 10,0 21 11 S 10
13.12.2018 21:00:00 17,0 9,0 21 11 S 10
13.12.2018 20:00:00 19,0 11,0 24 13 WSW 10
13.12.2018 19:00:00 20,0 11,0 29 16 WSW 10
13.12.2018 18:00:00 20,0 11,0 24 13 WSW 10
13.12.2018 17:00:00 21,0 11,0 24 13 WSW 10
13.12.2018 16:00:00 21,0 10,0 29 16 WSW 10
13.12.2018 15:00:00 20,0 12,0 28 15 W 10
13.12.2018 14:00:00 20,0 11,0 29 16 W 10
13.12.2018 13:00:00 19,0 11,0 26 14 W 10
13.12.2018 12:00:00 20,0 11,0 24 13 WSW 10
13.12.2018 11:00:00 21,0 12,0 11 6 S 10
13.12.2018 10:00:00 - - - - - -
13.12.2018 09:00:00 17,0 11,0 13 7 S 10
13.12.2018 08:00:00 14,0 11,0 0 0 N 10
13.12.2018 07:00:00 12,0 10,0 8 4 ESE 10
13.12.2018 06:00:00 12,0 10,0 0 0 N 10
13.12.2018 05:00:00 12,0 10,0 0 0 N 10
13.12.2018 04:00:00 12,0 10,0 0 0 N 10
13.12.2018 03:00:00 12,0 11,0 0 0 N 10
13.12.2018 02:00:00 13,0 11,0 0 0 N 10
13.12.2018 01:00:00 14,0 11,0 13 7 SSW 10
13.12.2018 00:00:00 14,0 11,0 8 4 SSE 10
12.12.2018 23:00:00 15,0 11,0 11 6 SSE 10
12.12.2018 22:00:00 15,0 11,0 13 7 S 10
12.12.2018 21:00:00 18,0 10,0 18 10 SSW 10
12.12.2018 20:00:00 21,0 12,0 18 10 SSW 10

tt = Température de l'air
td = dewpoint
ff = Vitesse du vent
dd = Direction du vent
vv = visibility

stations d'obs. à proximité